USCGC Healy — NEPP — position and weather

sailwx.info

Track history (hours):
 
Tides and Currents Weather Stations Pressure Air Temp Water Temp Dewpoint Dewpoint Depression Visibility Wind Speed Wind Dir Waves Ship Positions

Oceanographic research ship USCGC Healy (USA)

Detailed information on ship capabilities available from University of Delaware's Ocean Information Center and ARCUS's ALIAS (Arctic Logistics Information and Support) project.

Last reported at 2017-May-23 16:40 UTC. Time now 2017-May-25 03:12 UTC.
Position N 47°35' W 122°21'.

Type: Military. MMSI: 303902000.

Date/timePositionNaut miles runAvg speedWind from/ knotsBaromVisibWave heightAir tempDewpointWater temp
2017-May-23 16:40N 47°35' W 122°21'0 0.0
2017-May-23 16:30N 47°35' W 122°21'0 0.6
2017-May-23 16:00N 47°36' W 122°21'3 6.1
2017-May-23 15:30N 47°37' W 122°25'4 8.9
2017-May-23 15:01N 47°41' W 122°28'1414.0
2017-May-23 14:00N 47°55' W 122°30'612.0
2017-May-23 13:30N 47°59' W 122°36'811.5
2017-May-23 12:46N 48°07' W 122°41'410.2
2017-May-23 12:22N 48°10' W 122°45'410.3
2017-May-23 12:00N 48°06' W 122°48'62081.0 270 / 211015.8 5.4 11.1 9.1 9.4
2017-May-23 11:59N 48°11' W 122°51'4 7.5
2017-May-23 11:30N 48°14' W 122°55'2 3.6
2017-May-23 11:00N 48°14' W 122°58'0 0.7
2017-May-23 10:30N 48°15' W 122°58'1 1.1
2017-May-23 09:53N 48°15' W 122°59'1 1.9
2017-May-23 09:30N 48°15' W 123°00'1 1.7
2017-May-23 09:00N 48°15' W 123°01'1 1.6
2017-May-23 08:30N 48°16' W 123°01'1 1.5
2017-May-23 07:59N 48°17' W 122°60'0 0.8
2017-May-23 07:30N 48°16' W 122°60'1 1.1
2017-May-23 07:00N 48°16' W 122°60'0 0.6
2017-May-23 06:30N 48°15' W 122°60'0 0.6
2017-May-23 05:59N 48°15' W 122°59'0 0.3
2017-May-23 05:30N 48°15' W 122°59'0 0.5
2017-May-23 05:00N 48°15' W 122°59'0 0.7
2017-May-23 04:30N 48°15' W 122°60'1 1.4
2017-May-23 04:00N 48°16' W 123°01'2 3.1
2017-May-23 03:29N 48°17' W 123°02'0 0.6
2017-May-23 03:00N 48°17' W 123°02'1 1.1
2017-May-23 02:27N 48°16' W 123°01'1 1.6
2017-May-23 02:00N 48°16' W 123°01'1 2.3
2017-May-23 01:31N 48°15' W 122°59'1 1.9
2017-May-23 01:00N 48°14' W 122°58'2 3.9
2017-May-23 00:31N 48°14' W 123°01'1 2.8
2017-May-23 00:01N 48°15' W 123°03'1 1.4
2017-May-22 23:31N 48°15' W 123°02'1 1.3
2017-May-22 23:00N 48°14' W 123°01'0 0.7
2017-May-22 22:30N 48°14' W 123°01'0 0.4
2017-May-22 22:00N 48°14' W 123°00'0 0.3
2017-May-22 21:30N 48°14' W 123°00'2 3.8
2017-May-22 21:00N 48°15' W 123°02'1 1.9
2017-May-22 20:27N 48°14' W 123°01'1 2.1
2017-May-22 20:00N 48°14' W 123°00'2 3.9
2017-May-22 19:30N 48°16' W 123°00'2 3.4
2017-May-22 19:00N 48°16' W 123°03'3 6.2
2017-May-22 18:30N 48°14' W 123°07'611.8
2017-May-22 18:00N 48°12' W 123°15'611.8
2017-May-22 17:30N 48°10' W 123°23'1 1.4
2017-May-22 17:00N 48°10' W 123°24'3 6.2
2017-May-22 16:30N 48°11' W 123°28'611.9
2017-May-22 16:00N 48°13' W 123°37'611.9
2017-May-22 15:29N 48°13' W 123°46'510.0
2017-May-22 15:00N 48°13' W 123°53'4234.3
2017-May-22 15:00N 48°12' W 123°48'1716.6 060 / 81021.0 5.4 12.2 9.310.0
2017-May-22 14:00N 48°18' W 124°11'612.3
2017-May-22 13:30N 48°21' W 124°19'612.4
2017-May-22 13:00N 48°24' W 124°28'612.5
2017-May-22 12:30N 48°26' W 124°36'612.2
2017-May-22 12:00N 48°29' W 124°45'612.6
2017-May-22 11:30N 48°29' W 124°54'713.0
2017-May-22 11:00N 48°29' W 125°04'713.7
2017-May-22 10:30N 48°26' W 125°14'714.6
2017-May-22 10:00N 48°23' W 125°24'714.2
2017-May-22 09:30N 48°20' W 125°33'713.9
2017-May-22 09:00N 48°17' W 125°43'714.2
2017-May-22 08:30N 48°14' W 125°52'714.4
2017-May-22 08:00N 48°11' W 126°02'713.5
2017-May-22 07:30N 48°08' W 126°11'4 7.8
2017-May-22 07:00N 48°06' W 126°16'4 7.0
2017-May-22 06:30N 48°06' W 126°11'0 0.4
2017-May-22 06:00N 48°06' W 126°11'1 1.1
2017-May-22 05:30N 48°06' W 126°11'1 1.1
2017-May-22 05:00N 48°06' W 126°12'1 1.0
2017-May-22 04:30N 48°06' W 126°13'1 1.1
2017-May-22 04:00N 48°06' W 126°14'1 1.1
2017-May-22 03:30N 48°06' W 126°15'1 1.2
2017-May-22 03:00N 48°06' W 126°16'0 0.9
2017-May-22 02:30N 48°06' W 126°16'0 0.8
2017-May-22 02:00N 48°06' W 126°17'1 1.4
2017-May-22 01:24N 48°06' W 126°16'2 4.4
2017-May-22 01:01N 48°07' W 126°13'161.6
2017-May-22 01:00N 48°06' W 126°12'4 8.9 330 / 181024.1 0.0 13.311.411.7
2017-May-22 00:30N 48°10' W 126°14'4 6.4
2017-May-21 23:57N 48°07' W 126°13'3 5.7
2017-May-21 23:30N 48°05' W 126°17'0 0.7
2017-May-21 22:59N 48°06' W 126°17'1 1.2
2017-May-21 22:22N 48°06' W 126°17'0 1.4
2017-May-21 22:00N 48°07' W 126°18'0 0.9
2017-May-21 21:30N 48°06' W 126°18'0 0.9
2017-May-21 21:00N 48°06' W 126°18'1 6.2 330 / 141024.8 5.4 13.310.511.7
2017-May-21 20:51N 48°06' W 126°19'1 0.7
2017-May-21 19:16N 48°07' W 126°19'2 5.8
2017-May-21 18:57N 48°05' W 126°19'1 2.5
2017-May-21 18:26N 48°05' W 126°21'3 3.6
2017-May-21 17:29N 48°08' W 126°17'1 2.9
2017-May-21 17:00N 48°08' W 126°15'4 5.8
2017-May-21 16:23N 48°11' W 126°15'0 0.5
2017-May-21 15:56N 48°11' W 126°16'1 1.5
2017-May-21 15:30N 48°10' W 126°16'1 0.8
2017-May-21 14:32N 48°10' W 126°15'0 2.2
2017-May-21 14:20N 48°09' W 126°15'4 4.0
2017-May-21 13:17N 48°11' W 126°09'312.6
2017-May-21 13:00N 48°12' W 126°04'1514.3
2017-May-21 11:58N 48°19' W 125°45'510.4
2017-May-21 11:30N 48°21' W 125°38'610.5
2017-May-21 10:58N 48°24' W 125°31'910.9
2017-May-21 10:10N 48°28' W 125°19'311.3
2017-May-21 09:56N 48°29' W 125°15'510.9
2017-May-21 09:29N 48°31' W 125°08'611.2
2017-May-21 09:00N 48°30' W 125°00'119.6 310 / 121018.4 10.6 9.511.0
2017-May-21 08:57N 48°31' W 124°59'511.3
2017-May-21 08:30N 48°31' W 124°52'610.9
2017-May-21 07:59N 48°30' W 124°43'510.5
2017-May-21 07:30N 48°28' W 124°36'510.4
2017-May-21 07:00N 48°26' W 124°29'611.5
2017-May-21 06:31N 48°24' W 124°21'713.7
2017-May-21 06:00N 48°22' W 124°11'5509.5
2017-May-21 06:00N 48°18' W 124°06'3 5.8 300 / 221021.8 5.4 10.0 8.9 9.4
2017-May-21 05:30N 48°19' W 124°02'613.1
2017-May-21 05:00N 48°17' W 123°53'713.2
2017-May-21 04:30N 48°16' W 123°43'713.2
2017-May-21 04:00N 48°15' W 123°33'611.9
2017-May-21 03:30N 48°12' W 123°26'4 8.8
2017-May-21 03:00N 48°08' W 123°23'4384.5
2017-May-21 03:00N 48°06' W 123°18'5 9.8 290 / 151021.3 5.4 11.1 9.110.6
2017-May-21 02:30N 48°08' W 123°25'0 0.0
2017-May-21 02:00N 48°08' W 123°25'0 0.0
2017-May-21 01:30N 48°08' W 123°25'0 0.0
2017-May-21 01:00N 48°08' W 123°25'0 0.0
2017-May-21 00:26N 48°08' W 123°25'0 0.0
2017-May-21 00:00N 48°08' W 123°25'0 0.0
2017-May-20 23:24N 48°08' W 123°25'0 0.0
2017-May-20 23:00N 48°08' W 123°25'0 0.0
2017-May-20 22:14N 48°08' W 123°25'0 0.0
2017-May-20 21:57N 48°08' W 123°25'0 0.0
2017-May-20 21:27N 48°08' W 123°25'0 0.0
2017-May-20 21:00N 48°08' W 123°25'0 0.0
2017-May-20 20:30N 48°08' W 123°25'0 0.0
2017-May-20 20:00N 48°08' W 123°25'0 0.0
2017-May-20 19:29N 48°08' W 123°25'0 0.0
2017-May-20 18:59N 48°08' W 123°25'0 0.0
2017-May-20 18:27N 48°08' W 123°25'0 0.0
2017-May-20 17:59N 48°08' W 123°25'0 0.0
2017-May-20 17:29N 48°08' W 123°25'0 0.0
2017-May-20 16:59N 48°08' W 123°25'0 0.1
2017-May-20 16:31N 48°08' W 123°25'1 3.0
2017-May-20 16:00N 48°08' W 123°22'4 7.3
2017-May-20 15:30N 48°11' W 123°26'4 8.8
2017-May-20 15:00N 48°13' W 123°32'10 9.7
2017-May-20 14:00N 48°13' W 123°46'611.0
2017-May-20 13:30N 48°13' W 123°55'611.5
2017-May-20 13:00N 48°16' W 124°03'612.6
2017-May-20 12:30N 48°18' W 124°11'612.8
2017-May-20 12:00N 48°21' W 124°20'6457.2
2017-May-20 12:00N 48°18' W 124°12'1325.5 250 / 81020.0 5.4 11.1 9.110.0
2017-May-20 11:29N 48°24' W 124°29'612.8
2017-May-20 11:00N 48°27' W 124°37'612.3
2017-May-20 10:30N 48°29' W 124°46'612.2
2017-May-20 10:00N 48°29' W 124°56'612.0
2017-May-20 09:30N 48°29' W 125°05'612.8
2017-May-20 09:01N 48°26' W 125°13'2139.7
2017-May-20 09:00N 48°24' W 125°12'714.8 300 / 121019.6 5.4 11.1 9.112.2
2017-May-20 08:31N 48°23' W 125°23'713.3
2017-May-20 08:01N 48°20' W 125°32'612.8
2017-May-20 07:31N 48°18' W 125°40'4 8.0
2017-May-20 06:59N 48°16' W 125°46'4 7.4
2017-May-20 06:26N 48°14' W 125°52'5 7.3
2017-May-20 05:41N 48°12' W 125°59'71 8.1
2017-May-19 21:00N 47°36' W 127°30'50 4.2 270 / 161020.4 5.4 10.6 9.511.0
2017-May-19 09:00N 48°00' W 126°24'0 0.0 140 / 31017.4 5.4 11.1 9.1
2017-May-19 03:00N 48°00' W 126°24'4 1.3 150 / 91016.2 5.4 11.1 9.111.1
2017-May-19 00:00N 48°00' W 126°30'4 1.3 140 / 121020.0 5.4 12.2 8.111.1
2017-May-18 21:00N 48°00' W 126°24'8 1.3 140 / 121019.5 5.4 13.3 7.111.1
2017-May-18 15:00N 48°00' W 126°36'8 1.3 140 / 111018.8 5.4 11.1 7.910.6
2017-May-18 09:00N 48°00' W 126°24'31 4.2 160 / 121019.1 5.4 10.0 7.911.1
2017-May-18 01:27N 48°18' W 125°46'612.0
2017-May-18 01:00N 48°21' W 125°39'612.3
2017-May-18 00:29N 48°24' W 125°30'812.2
2017-May-17 23:48N 48°28' W 125°19'411.8
2017-May-17 23:29N 48°30' W 125°15'510.7
2017-May-17 22:59N 48°31' W 125°07'4 9.0
2017-May-17 22:29N 48°31' W 125°00'511.1
2017-May-17 22:00N 48°31' W 124°52'611.9
2017-May-17 21:30N 48°31' W 124°43'713.6
2017-May-17 21:00N 48°28' W 124°34'714.6
2017-May-17 20:30N 48°25' W 124°23'714.5
2017-May-17 20:00N 48°22' W 124°13'714.9
2017-May-17 19:30N 48°20' W 124°03'714.8
2017-May-17 19:00N 48°17' W 123°53'714.7
2017-May-17 18:30N 48°16' W 123°42'713.5
2017-May-17 18:00N 48°15' W 123°32'3315.7
2017-May-17 18:00N 48°12' W 123°30'4 8.9 290 / 141018.9 5.4 12.2 9.3 9.4
2017-May-17 17:30N 48°15' W 123°25'613.1
2017-May-17 17:01N 48°14' W 123°15'5 9.1
2017-May-17 16:30N 48°18' W 123°11'612.1
2017-May-17 16:00N 48°12' W 123°16'2 3.8
2017-May-17 15:30N 48°11' W 123°18'1 1.1
2017-May-17 15:00N 48°11' W 123°17'6431.9
2017-May-17 15:00N 48°06' W 123°12'1010.2 260 / 111017.4 5.4 10.6 8.4 9.4
2017-May-17 14:00N 48°15' W 123°04'3 6.4
2017-May-17 13:30N 48°16' W 122°60'1 3.0
2017-May-17 13:00N 48°18' W 123°01'2 3.5
2017-May-17 12:30N 48°16' W 122°59'510.7
2017-May-17 12:00N 48°12' W 122°54'62899.6 200 / 101038.2 5.4 10.0 6.7 9.4
2017-May-17 11:59N 48°17' W 122°59'1 1.6
2017-May-17 11:30N 48°17' W 122°59'1 2.3
2017-May-17 11:00N 48°17' W 123°01'1 2.1
2017-May-17 10:29N 48°17' W 123°03'1 2.2
2017-May-17 10:00N 48°16' W 123°04'7464.8
2017-May-17 10:00N 48°12' W 123°12'612.1 270 / 191011.2 10.0 7.9 9.4
2017-May-17 09:30N 48°15' W 123°05'0 0.9
2017-May-17 09:00N 48°15' W 123°05'1 1.6
2017-May-17 08:30N 48°14' W 123°05'1 2.1
2017-May-17 08:01N 48°14' W 123°03'1 2.1
2017-May-17 07:29N 48°14' W 123°02'1 2.2
2017-May-17 06:49N 48°14' W 122°60'1 2.3
2017-May-17 06:28N 48°15' W 122°59'4 9.0
2017-May-17 06:00N 48°12' W 122°54'4118.4 270 / 241010.3 5.4 10.0 8.9 9.4
2017-May-17 05:57N 48°16' W 122°58'1 2.0
2017-May-17 05:30N 48°16' W 122°57'1 1.1
2017-May-17 05:00N 48°17' W 122°57'0 0.4
2017-May-17 04:30N 48°17' W 122°57'0 0.5
2017-May-17 04:00N 48°16' W 122°57'0 0.9
2017-May-17 03:29N 48°16' W 122°58'0 0.5
2017-May-17 02:59N 48°16' W 122°58'1 1.1
2017-May-17 02:30N 48°16' W 122°58'1 1.3
2017-May-17 01:59N 48°17' W 122°58'1 1.5
2017-May-17 01:30N 48°17' W 122°59'1 1.4
2017-May-17 01:00N 48°17' W 123°00'1 1.2
2017-May-17 00:30N 48°16' W 123°01'4 8.7
2017-May-17 00:00N 48°12' W 123°00'41674.2 1007.1 5.4 13.9 8.812.2
2017-May-16 23:59N 48°16' W 123°01'0 1.0
2017-May-16 23:30N 48°16' W 123°01'0 1.0
2017-May-16 23:00N 48°15' W 123°01'1 2.9
2017-May-16 22:30N 48°14' W 122°59'4 7.2
2017-May-16 22:00N 48°13' W 122°54'713.2
2017-May-16 21:30N 48°10' W 122°45'713.8
2017-May-16 20:58N 48°05' W 122°38'612.7
2017-May-16 20:29N 47°59' W 122°35'510.8
2017-May-16 20:00N 47°55' W 122°29'510.7
2017-May-16 19:31N 47°50' W 122°27'611.8
2017-May-16 19:00N 47°44' W 122°26'612.2
2017-May-16 18:30N 47°38' W 122°27'5 9.8
2017-May-16 18:01N 47°36' W 122°21'1 1.0
2017-May-16 17:28N 47°35' W 122°21'0 0.0
2017-May-16 16:51N 47°35' W 122°21'  
Track history (hours):
 
Tides and Currents Weather Stations Pressure Air Temp Water Temp Dewpoint Dewpoint Depression Visibility Wind Speed Wind Dir Waves Ship Positions

Oceanographic research ship USCGC Healy (USA)

Detailed information on ship capabilities available from University of Delaware's Ocean Information Center and ARCUS's ALIAS (Arctic Logistics Information and Support) project.

Last reported at 2017-May-23 16:40 UTC. Time now 2017-May-25 03:12 UTC.
Position N 47°35' W 122°21'.

Type: Military. MMSI: 303902000.

Date/timePositionNaut miles runAvg speedWind from/ knotsBaromVisibWave heightAir tempDewpointWater temp
2017-May-23 16:40N 47°35' W 122°21'0 0.0
2017-May-23 16:30N 47°35' W 122°21'0 0.6
2017-May-23 16:00N 47°36' W 122°21'3 6.1
2017-May-23 15:30N 47°37' W 122°25'4 8.9
2017-May-23 15:01N 47°41' W 122°28'1414.0
2017-May-23 14:00N 47°55' W 122°30'612.0
2017-May-23 13:30N 47°59' W 122°36'811.5
2017-May-23 12:46N 48°07' W 122°41'410.2
2017-May-23 12:22N 48°10' W 122°45'410.3
2017-May-23 12:00N 48°06' W 122°48'62081.0 270 / 211015.8 5.4 11.1 9.1 9.4
2017-May-23 11:59N 48°11' W 122°51'4 7.5
2017-May-23 11:30N 48°14' W 122°55'2 3.6
2017-May-23 11:00N 48°14' W 122°58'0 0.7
2017-May-23 10:30N 48°15' W 122°58'1 1.1
2017-May-23 09:53N 48°15' W 122°59'1 1.9
2017-May-23 09:30N 48°15' W 123°00'1 1.7
2017-May-23 09:00N 48°15' W 123°01'1 1.6
2017-May-23 08:30N 48°16' W 123°01'1 1.5
2017-May-23 07:59N 48°17' W 122°60'0 0.8
2017-May-23 07:30N 48°16' W 122°60'1 1.1
2017-May-23 07:00N 48°16' W 122°60'0 0.6
2017-May-23 06:30N 48°15' W 122°60'0 0.6
2017-May-23 05:59N 48°15' W 122°59'0 0.3
2017-May-23 05:30N 48°15' W 122°59'0 0.5
2017-May-23 05:00N 48°15' W 122°59'0 0.7
2017-May-23 04:30N 48°15' W 122°60'1 1.4
2017-May-23 04:00N 48°16' W 123°01'2 3.1
2017-May-23 03:29N 48°17' W 123°02'0 0.6
2017-May-23 03:00N 48°17' W 123°02'1 1.1
2017-May-23 02:27N 48°16' W 123°01'1 1.6
2017-May-23 02:00N 48°16' W 123°01'1 2.3
2017-May-23 01:31N 48°15' W 122°59'1 1.9
2017-May-23 01:00N 48°14' W 122°58'2 3.9
2017-May-23 00:31N 48°14' W 123°01'1 2.8
2017-May-23 00:01N 48°15' W 123°03'1 1.4
2017-May-22 23:31N 48°15' W 123°02'1 1.3
2017-May-22 23:00N 48°14' W 123°01'0 0.7
2017-May-22 22:30N 48°14' W 123°01'0 0.4
2017-May-22 22:00N 48°14' W 123°00'0 0.3
2017-May-22 21:30N 48°14' W 123°00'2 3.8
2017-May-22 21:00N 48°15' W 123°02'1 1.9
2017-May-22 20:27N 48°14' W 123°01'1 2.1
2017-May-22 20:00N 48°14' W 123°00'2 3.9
2017-May-22 19:30N 48°16' W 123°00'2 3.4
2017-May-22 19:00N 48°16' W 123°03'3 6.2
2017-May-22 18:30N 48°14' W 123°07'611.8
2017-May-22 18:00N 48°12' W 123°15'611.8
2017-May-22 17:30N 48°10' W 123°23'1 1.4
2017-May-22 17:00N 48°10' W 123°24'3 6.2
2017-May-22 16:30N 48°11' W 123°28'611.9
2017-May-22 16:00N 48°13' W 123°37'611.9
2017-May-22 15:29N 48°13' W 123°46'510.0
2017-May-22 15:00N 48°13' W 123°53'4234.3
2017-May-22 15:00N 48°12' W 123°48'1716.6 060 / 81021.0 5.4 12.2 9.310.0
2017-May-22 14:00N 48°18' W 124°11'612.3
2017-May-22 13:30N 48°21' W 124°19'612.4
2017-May-22 13:00N 48°24' W 124°28'612.5
2017-May-22 12:30N 48°26' W 124°36'612.2
2017-May-22 12:00N 48°29' W 124°45'612.6
2017-May-22 11:30N 48°29' W 124°54'713.0
2017-May-22 11:00N 48°29' W 125°04'713.7
2017-May-22 10:30N 48°26' W 125°14'714.6
2017-May-22 10:00N 48°23' W 125°24'714.2
2017-May-22 09:30N 48°20' W 125°33'713.9
2017-May-22 09:00N 48°17' W 125°43'714.2
2017-May-22 08:30N 48°14' W 125°52'714.4
2017-May-22 08:00N 48°11' W 126°02'713.5
2017-May-22 07:30N 48°08' W 126°11'4 7.8
2017-May-22 07:00N 48°06' W 126°16'4 7.0
2017-May-22 06:30N 48°06' W 126°11'0 0.4
2017-May-22 06:00N 48°06' W 126°11'1 1.1
2017-May-22 05:30N 48°06' W 126°11'1 1.1
2017-May-22 05:00N 48°06' W 126°12'1 1.0
2017-May-22 04:30N 48°06' W 126°13'1 1.1
2017-May-22 04:00N 48°06' W 126°14'1 1.1
2017-May-22 03:30N 48°06' W 126°15'1 1.2
2017-May-22 03:00N 48°06' W 126°16'0 0.9
2017-May-22 02:30N 48°06' W 126°16'0 0.8
2017-May-22 02:00N 48°06' W 126°17'1 1.4
2017-May-22 01:24N 48°06' W 126°16'2 4.4
2017-May-22 01:01N 48°07' W 126°13'161.6
2017-May-22 01:00N 48°06' W 126°12'4 8.9 330 / 181024.1 0.0 13.311.411.7
2017-May-22 00:30N 48°10' W 126°14'4 6.4
2017-May-21 23:57N 48°07' W 126°13'3 5.7
2017-May-21 23:30N 48°05' W 126°17'0 0.7
2017-May-21 22:59N 48°06' W 126°17'1 1.2
2017-May-21 22:22N 48°06' W 126°17'0 1.4
2017-May-21 22:00N 48°07' W 126°18'0 0.9
2017-May-21 21:30N 48°06' W 126°18'0 0.9
2017-May-21 21:00N 48°06' W 126°18'1 6.2 330 / 141024.8 5.4 13.310.511.7
2017-May-21 20:51N 48°06' W 126°19'1 0.7
2017-May-21 19:16N 48°07' W 126°19'2 5.8
2017-May-21 18:57N 48°05' W 126°19'1 2.5
2017-May-21 18:26N 48°05' W 126°21'3 3.6
2017-May-21 17:29N 48°08' W 126°17'1 2.9
2017-May-21 17:00N 48°08' W 126°15'4 5.8
2017-May-21 16:23N 48°11' W 126°15'0 0.5
2017-May-21 15:56N 48°11' W 126°16'1 1.5
2017-May-21 15:30N 48°10' W 126°16'1 0.8
2017-May-21 14:32N 48°10' W 126°15'0 2.2
2017-May-21 14:20N 48°09' W 126°15'4 4.0
2017-May-21 13:17N 48°11' W 126°09'312.6
2017-May-21 13:00N 48°12' W 126°04'1514.3
2017-May-21 11:58N 48°19' W 125°45'510.4
2017-May-21 11:30N 48°21' W 125°38'610.5
2017-May-21 10:58N 48°24' W 125°31'910.9
2017-May-21 10:10N 48°28' W 125°19'311.3
2017-May-21 09:56N 48°29' W 125°15'510.9
2017-May-21 09:29N 48°31' W 125°08'611.2
2017-May-21 09:00N 48°30' W 125°00'119.6 310 / 121018.4 10.6 9.511.0
2017-May-21 08:57N 48°31' W 124°59'511.3
2017-May-21 08:30N 48°31' W 124°52'610.9
2017-May-21 07:59N 48°30' W 124°43'510.5
2017-May-21 07:30N 48°28' W 124°36'510.4
2017-May-21 07:00N 48°26' W 124°29'611.5
2017-May-21 06:31N 48°24' W 124°21'713.7
2017-May-21 06:00N 48°22' W 124°11'5509.5
2017-May-21 06:00N 48°18' W 124°06'3 5.8 300 / 221021.8 5.4 10.0 8.9 9.4
2017-May-21 05:30N 48°19' W 124°02'613.1
2017-May-21 05:00N 48°17' W 123°53'713.2
2017-May-21 04:30N 48°16' W 123°43'713.2
2017-May-21 04:00N 48°15' W 123°33'611.9
2017-May-21 03:30N 48°12' W 123°26'4 8.8
2017-May-21 03:00N 48°08' W 123°23'4384.5
2017-May-21 03:00N 48°06' W 123°18'5 9.8 290 / 151021.3 5.4 11.1 9.110.6
2017-May-21 02:30N 48°08' W 123°25'0 0.0
2017-May-21 02:00N 48°08' W 123°25'0 0.0
2017-May-21 01:30N 48°08' W 123°25'0 0.0
2017-May-21 01:00N 48°08' W 123°25'0 0.0
2017-May-21 00:26N 48°08' W 123°25'0 0.0
2017-May-21 00:00N 48°08' W 123°25'0 0.0
2017-May-20 23:24N 48°08' W 123°25'0 0.0
2017-May-20 23:00N 48°08' W 123°25'0 0.0
2017-May-20 22:14N 48°08' W 123°25'0 0.0
2017-May-20 21:57N 48°08' W 123°25'0 0.0
2017-May-20 21:27N 48°08' W 123°25'0 0.0
2017-May-20 21:00N 48°08' W 123°25'0 0.0
2017-May-20 20:30N 48°08' W 123°25'0 0.0
2017-May-20 20:00N 48°08' W 123°25'0 0.0
2017-May-20 19:29N 48°08' W 123°25'0 0.0
2017-May-20 18:59N 48°08' W 123°25'0 0.0
2017-May-20 18:27N 48°08' W 123°25'0 0.0
2017-May-20 17:59N 48°08' W 123°25'0 0.0
2017-May-20 17:29N 48°08' W 123°25'0 0.0
2017-May-20 16:59N 48°08' W 123°25'0 0.1
2017-May-20 16:31N 48°08' W 123°25'1 3.0
2017-May-20 16:00N 48°08' W 123°22'4 7.3
2017-May-20 15:30N 48°11' W 123°26'4 8.8
2017-May-20 15:00N 48°13' W 123°32'10 9.7
2017-May-20 14:00N 48°13' W 123°46'611.0
2017-May-20 13:30N 48°13' W 123°55'611.5
2017-May-20 13:00N 48°16' W 124°03'612.6
2017-May-20 12:30N 48°18' W 124°11'612.8
2017-May-20 12:00N 48°21' W 124°20'6457.2
2017-May-20 12:00N 48°18' W 124°12'1325.5 250 / 81020.0 5.4 11.1 9.110.0
2017-May-20 11:29N 48°24' W 124°29'612.8
2017-May-20 11:00N 48°27' W 124°37'612.3
2017-May-20 10:30N 48°29' W 124°46'612.2
2017-May-20 10:00N 48°29' W 124°56'612.0
2017-May-20 09:30N 48°29' W 125°05'612.8
2017-May-20 09:01N 48°26' W 125°13'2139.7
2017-May-20 09:00N 48°24' W 125°12'714.8 300 / 121019.6 5.4 11.1 9.112.2
2017-May-20 08:31N 48°23' W 125°23'713.3
2017-May-20 08:01N 48°20' W 125°32'612.8
2017-May-20 07:31N 48°18' W 125°40'4 8.0
2017-May-20 06:59N 48°16' W 125°46'4 7.4
2017-May-20 06:26N 48°14' W 125°52'5 7.3
2017-May-20 05:41N 48°12' W 125°59'71 8.1
2017-May-19 21:00N 47°36' W 127°30'50 4.2 270 / 161020.4 5.4 10.6 9.511.0
2017-May-19 09:00N 48°00' W 126°24'0 0.0 140 / 31017.4 5.4 11.1 9.1
2017-May-19 03:00N 48°00' W 126°24'4 1.3 150 / 91016.2 5.4 11.1 9.111.1
2017-May-19 00:00N 48°00' W 126°30'4 1.3 140 / 121020.0 5.4 12.2 8.111.1
2017-May-18 21:00N 48°00' W 126°24'8 1.3 140 / 121019.5 5.4 13.3 7.111.1
2017-May-18 15:00N 48°00' W 126°36'8 1.3 140 / 111018.8 5.4 11.1 7.910.6
2017-May-18 09:00N 48°00' W 126°24'31 4.2 160 / 121019.1 5.4 10.0 7.911.1
2017-May-18 01:27N 48°18' W 125°46'612.0
2017-May-18 01:00N 48°21' W 125°39'612.3
2017-May-18 00:29N 48°24' W 125°30'812.2
2017-May-17 23:48N 48°28' W 125°19'411.8
2017-May-17 23:29N 48°30' W 125°15'510.7
2017-May-17 22:59N 48°31' W 125°07'4 9.0
2017-May-17 22:29N 48°31' W 125°00'511.1
2017-May-17 22:00N 48°31' W 124°52'611.9
2017-May-17 21:30N 48°31' W 124°43'713.6
2017-May-17 21:00N 48°28' W 124°34'714.6
2017-May-17 20:30N 48°25' W 124°23'714.5
2017-May-17 20:00N 48°22' W 124°13'714.9
2017-May-17 19:30N 48°20' W 124°03'714.8
2017-May-17 19:00N 48°17' W 123°53'714.7
2017-May-17 18:30N 48°16' W 123°42'713.5
2017-May-17 18:00N 48°15' W 123°32'3315.7
2017-May-17 18:00N 48°12' W 123°30'4 8.9 290 / 141018.9 5.4 12.2 9.3 9.4
2017-May-17 17:30N 48°15' W 123°25'613.1
2017-May-17 17:01N 48°14' W 123°15'5 9.1
2017-May-17 16:30N 48°18' W 123°11'612.1
2017-May-17 16:00N 48°12' W 123°16'2 3.8
2017-May-17 15:30N 48°11' W 123°18'1 1.1
2017-May-17 15:00N 48°11' W 123°17'6431.9
2017-May-17 15:00N 48°06' W 123°12'1010.2 260 / 111017.4 5.4 10.6 8.4 9.4
2017-May-17 14:00N 48°15' W 123°04'3 6.4
2017-May-17 13:30N 48°16' W 122°60'1 3.0
2017-May-17 13:00N 48°18' W 123°01'2 3.5
2017-May-17 12:30N 48°16' W 122°59'510.7
2017-May-17 12:00N 48°12' W 122°54'62899.6 200 / 101038.2 5.4 10.0 6.7 9.4
2017-May-17 11:59N 48°17' W 122°59'1 1.6
2017-May-17 11:30N 48°17' W 122°59'1 2.3
2017-May-17 11:00N 48°17' W 123°01'1 2.1
2017-May-17 10:29N 48°17' W 123°03'1 2.2
2017-May-17 10:00N 48°16' W 123°04'7464.8
2017-May-17 10:00N 48°12' W 123°12'612.1 270 / 191011.2 10.0 7.9 9.4
2017-May-17 09:30N 48°15' W 123°05'0 0.9
2017-May-17 09:00N 48°15' W 123°05'1 1.6
2017-May-17 08:30N 48°14' W 123°05'1 2.1
2017-May-17 08:01N 48°14' W 123°03'1 2.1
2017-May-17 07:29N 48°14' W 123°02'1 2.2
2017-May-17 06:49N 48°14' W 122°60'1 2.3
2017-May-17 06:28N 48°15' W 122°59'4 9.0
2017-May-17 06:00N 48°12' W 122°54'4118.4 270 / 241010.3 5.4 10.0 8.9 9.4
2017-May-17 05:57N 48°16' W 122°58'1 2.0
2017-May-17 05:30N 48°16' W 122°57'1 1.1
2017-May-17 05:00N 48°17' W 122°57'0 0.4
2017-May-17 04:30N 48°17' W 122°57'0 0.5
2017-May-17 04:00N 48°16' W 122°57'0 0.9
2017-May-17 03:29N 48°16' W 122°58'0 0.5
2017-May-17 02:59N 48°16' W 122°58'1 1.1
2017-May-17 02:30N 48°16' W 122°58'1 1.3
2017-May-17 01:59N 48°17' W 122°58'1 1.5
2017-May-17 01:30N 48°17' W 122°59'1 1.4
2017-May-17 01:00N 48°17' W 123°00'1 1.2
2017-May-17 00:30N 48°16' W 123°01'4 8.7
2017-May-17 00:00N 48°12' W 123°00'41674.2 1007.1 5.4 13.9 8.812.2
2017-May-16 23:59N 48°16' W 123°01'0 1.0
2017-May-16 23:30N 48°16' W 123°01'0 1.0
2017-May-16 23:00N 48°15' W 123°01'1 2.9
2017-May-16 22:30N 48°14' W 122°59'4 7.2
2017-May-16 22:00N 48°13' W 122°54'713.2
2017-May-16 21:30N 48°10' W 122°45'713.8
2017-May-16 20:58N 48°05' W 122°38'612.7
2017-May-16 20:29N 47°59' W 122°35'510.8
2017-May-16 20:00N 47°55' W 122°29'510.7
2017-May-16 19:31N 47°50' W 122°27'611.8
2017-May-16 19:00N 47°44' W 122°26'612.2
2017-May-16 18:30N 47°38' W 122°27'5 9.8
2017-May-16 18:01N 47°36' W 122°21'1 1.0
2017-May-16 17:28N 47°35' W 122°21'0 0.0
2017-May-16 16:51N 47°35' W 122°21'  

Dump ship's entire track history